Montrose, California
Current Conditions -  °F | °C
As of 12:53 AM on Monday 20 Oct 2014 (Local Time) from KBUR Reporting Station
Haze Haze  
Wind Chill: 64°   Ceiling: 800
Heat Index: 64°   Visibility: 5mi
Dew Point: 60°   Wind: 0mph
Humidity: 87%   Direction: NA
Pressure: 29.9"   Gusts: NA
Location:  34.21°N, 118.22°W
Report Text: KBUR 200753Z 00000KT 5SM BR OVC008 18/16 A2990 RMK AO2 SLP112 T01780156 402560133
Loading
Personal Weather Stations






























Interactive Weather Map
Tropical Storm Tracking
New forecast layout! Learn more

10-Day Weather Forecast

Advertisements
Track Severe Weather on mobile